createdAt,value
2018-08-28T00:00:03.201Z,73.42
2018-08-28T00:02:31.619Z,74.38
2018-08-28T00:05:01.278Z,74.81
2018-08-28T00:07:29.363Z,75.19
2018-08-28T00:09:57.504Z,74.88
2018-08-28T00:12:25.669Z,76.02
2018-08-28T00:14:53.888Z,74.92
2018-08-28T00:17:21.979Z,75.74
2018-08-28T00:19:50.052Z,75.93
2018-08-28T00:22:18.140Z,75.91
2018-08-28T00:24:46.237Z,75.73
2018-08-28T00:27:14.312Z,75.36
2018-08-28T00:29:42.394Z,76.82
2018-08-28T00:32:10.495Z,77.42
2018-08-28T00:34:38.566Z,77.27
2018-08-28T00:37:06.653Z,77.43
2018-08-28T00:39:34.760Z,77.60
2018-08-28T00:42:02.809Z,78.45
2018-08-28T00:44:30.915Z,79.27
2018-08-28T00:46:59.123Z,79.58
2018-08-28T00:49:27.189Z,79.92
2018-08-28T00:51:55.250Z,79.69
2018-08-28T00:54:23.348Z,78.82
2018-08-28T00:56:51.465Z,78.98
2018-08-28T00:59:19.574Z,79.27
2018-08-28T01:01:47.655Z,79.39
2018-08-28T01:04:15.738Z,80.11
2018-08-28T01:06:43.827Z,79.57
2018-08-28T01:09:11.911Z,79.63
2018-08-28T01:11:40.040Z,80.51
2018-08-28T01:14:08.103Z,81.68
2018-08-28T01:16:36.180Z,80.96
2018-08-28T01:19:04.253Z,82.45
2018-08-28T01:21:32.324Z,82.62
2018-08-28T01:24:00.398Z,81.52
2018-08-28T01:26:28.512Z,81.55
2018-08-28T01:28:56.588Z,82.18
2018-08-28T01:31:24.690Z,81.93
2018-08-28T01:33:52.771Z,81.89
2018-08-28T01:36:20.927Z,82.66
2018-08-28T01:38:48.986Z,81.81
2018-08-28T01:41:17.055Z,82.71
2018-08-28T01:43:45.127Z,82.45
2018-08-28T01:46:13.212Z,83.15
2018-08-28T01:48:41.297Z,82.68
2018-08-28T01:51:09.435Z,83.15
2018-08-28T01:53:37.538Z,82.54
2018-08-28T01:56:05.610Z,82.88
2018-08-28T01:58:33.702Z,82.37
2018-08-28T02:01:01.792Z,82.50
2018-08-28T02:03:29.864Z,82.53
2018-08-28T02:05:57.961Z,82.20
2018-08-28T02:08:26.052Z,82.13
2018-08-28T02:10:54.117Z,82.27
2018-08-28T02:13:22.246Z,82.24
2018-08-28T02:15:56.941Z,81.99
2018-08-28T02:18:25.013Z,82.19
2018-08-28T02:20:53.117Z,82.90
2018-08-28T02:23:21.279Z,84.08
2018-08-28T02:25:49.419Z,84.83
2018-08-28T02:28:17.537Z,84.77
2018-08-28T02:30:45.608Z,85.17
2018-08-28T02:33:13.771Z,84.13
2018-08-28T02:35:41.945Z,83.85
2018-08-28T02:38:10.079Z,84.04
2018-08-28T02:40:38.240Z,83.71
2018-08-28T02:43:06.323Z,83.90
2018-08-28T02:45:34.395Z,83.64
2018-08-28T02:48:02.552Z,85.28
2018-08-28T02:50:30.706Z,85.32
2018-08-28T02:52:58.811Z,85.58
2018-08-28T02:55:26.883Z,86.48
2018-08-28T02:57:54.962Z,85.92
2018-08-28T03:00:23.030Z,85.66
2018-08-28T03:02:51.233Z,85.86
2018-08-28T03:05:19.315Z,84.98
2018-08-28T03:07:47.415Z,84.55
2018-08-28T03:10:15.522Z,84.38
2018-08-28T03:12:43.686Z,84.53
2018-08-28T03:15:11.742Z,84.80
2018-08-28T03:17:39.831Z,84.75
2018-08-28T03:20:07.901Z,84.96
2018-08-28T03:22:35.989Z,85.95
2018-08-28T03:25:04.060Z,86.03
2018-08-28T03:27:32.140Z,86.54
2018-08-28T03:30:00.229Z,85.88
2018-08-28T03:32:28.287Z,85.84
2018-08-28T03:34:56.402Z,85.92
2018-08-28T03:37:24.481Z,86.04
2018-08-28T03:39:52.728Z,86.16
2018-08-28T03:42:20.813Z,85.38
2018-08-28T03:44:48.926Z,85.87
2018-08-28T03:47:17.013Z,87.08
2018-08-28T03:49:45.159Z,88.12
2018-08-28T03:52:13.267Z,87.95
2018-08-28T03:54:41.404Z,88.19
2018-08-28T03:57:09.496Z,86.72
2018-08-28T03:59:37.619Z,87.39
2018-08-28T04:02:05.847Z,88.65
2018-08-28T04:04:33.929Z,88.54
2018-08-28T04:07:01.996Z,89.16
2018-08-28T04:09:30.063Z,89.47
2018-08-28T04:11:58.946Z,89.68
2018-08-28T04:14:27.019Z,89.53
2018-08-28T04:16:55.141Z,89.31
2018-08-28T04:19:23.227Z,89.84
2018-08-28T04:21:51.296Z,89.44
2018-08-28T04:24:19.397Z,89.82
2018-08-28T04:26:47.500Z,89.88
2018-08-28T04:29:15.560Z,89.99
2018-08-28T04:31:43.628Z,90.08
2018-08-28T04:34:11.709Z,90.13
2018-08-28T04:36:39.786Z,90.26
2018-08-28T04:39:08.015Z,89.80
2018-08-28T04:41:36.116Z,89.54
2018-08-28T04:44:04.193Z,89.44
2018-08-28T04:46:32.313Z,88.78
2018-08-28T04:49:00.594Z,89.32
2018-08-28T04:51:28.750Z,89.08
2018-08-28T04:53:56.847Z,89.98
2018-08-28T04:56:24.956Z,90.00
2018-08-28T04:58:53.196Z,89.76
2018-08-28T05:01:21.281Z,89.57
2018-08-28T05:03:49.352Z,89.48
2018-08-28T05:06:17.424Z,89.73
2018-08-28T05:08:45.539Z,90.38
2018-08-28T05:11:13.618Z,90.34
2018-08-28T05:13:41.732Z,90.62
2018-08-28T05:16:09.872Z,91.06
2018-08-28T05:18:37.939Z,89.90
2018-08-28T05:21:05.715Z,90.70
2018-08-28T05:23:33.804Z,90.71
2018-08-28T05:26:01.894Z,90.65
2018-08-28T05:28:30.690Z,90.57
2018-08-28T05:30:58.760Z,90.80
2018-08-28T05:33:26.831Z,90.48
2018-08-28T05:35:54.938Z,90.55
2018-08-28T05:38:23.023Z,90.46
2018-08-28T05:40:51.112Z,89.85
2018-08-28T05:43:19.271Z,89.46
2018-08-28T05:45:47.420Z,89.28
2018-08-28T05:48:15.480Z,89.75
2018-08-28T05:50:43.551Z,88.82
2018-08-28T05:53:11.596Z,89.39
2018-08-28T05:55:39.717Z,88.79
2018-08-28T05:58:07.738Z,88.38
2018-08-28T06:00:35.812Z,88.44
2018-08-28T06:03:04.065Z,87.91
2018-08-28T06:05:38.746Z,88.13
2018-08-28T06:08:06.813Z,87.13
2018-08-28T06:10:34.899Z,87.25
2018-08-28T06:13:02.983Z,86.40
2018-08-28T06:15:31.056Z,85.76
2018-08-28T06:17:59.142Z,85.53
2018-08-28T06:20:27.227Z,85.93
2018-08-28T06:22:55.334Z,84.70
2018-08-28T06:25:23.366Z,84.49
2018-08-28T06:27:51.447Z,84.88
2018-08-28T06:30:19.540Z,85.47
2018-08-28T06:32:47.613Z,85.37
2018-08-28T06:35:15.711Z,84.62
2018-08-28T06:37:43.776Z,83.37
2018-08-28T06:40:11.909Z,82.69
2018-08-28T06:42:39.948Z,82.75
2018-08-28T06:45:08.034Z,81.59
2018-08-28T06:47:36.124Z,81.02
2018-08-28T06:50:04.743Z,79.32
2018-08-28T06:52:32.819Z,77.98
2018-08-28T06:55:00.896Z,77.53
2018-08-28T06:57:29.065Z,76.17
2018-08-28T06:59:57.341Z,77.06
2018-08-28T07:02:25.418Z,77.85
2018-08-28T07:04:53.484Z,75.45
2018-08-28T07:07:21.569Z,75.27
2018-08-28T07:09:49.825Z,75.03
2018-08-28T07:12:17.917Z,75.03
2018-08-28T07:14:45.989Z,73.84
2018-08-28T07:17:14.088Z,71.98
2018-08-28T07:19:42.209Z,72.61
2018-08-28T07:22:10.298Z,71.32
2018-08-28T07:24:38.371Z,72.03
2018-08-28T07:27:06.453Z,71.51
2018-08-28T07:29:34.517Z,71.72
2018-08-28T07:32:02.635Z,69.69
2018-08-28T07:34:30.712Z,68.85
2018-08-28T07:36:58.787Z,67.34
2018-08-28T07:39:26.896Z,67.31
2018-08-28T07:41:54.972Z,67.32
2018-08-28T07:44:23.388Z,67.20
2018-08-28T07:46:51.569Z,66.43
2018-08-28T07:49:19.658Z,67.00
2018-08-28T07:51:47.789Z,65.88
2018-08-28T07:54:15.847Z,65.23
2018-08-28T07:56:44.037Z,64.98
2018-08-28T07:59:12.210Z,64.20
2018-08-28T08:01:40.370Z,64.09
2018-08-28T08:04:08.488Z,64.96
2018-08-28T08:06:36.655Z,64.60
2018-08-28T08:09:06.949Z,63.97
2018-08-28T08:11:35.054Z,63.68
2018-08-28T08:14:03.179Z,63.00
2018-08-28T08:16:31.284Z,62.00
2018-08-28T08:18:59.361Z,62.58
2018-08-28T08:21:27.427Z,62.71
2018-08-28T08:23:55.509Z,62.77
2018-08-28T08:26:23.759Z,61.94
2018-08-28T08:28:51.875Z,61.78
2018-08-28T08:31:19.951Z,62.24
2018-08-28T08:33:48.064Z,62.37
2018-08-28T08:36:16.237Z,62.02
2018-08-28T08:38:44.320Z,62.06
2018-08-28T08:41:12.492Z,61.28
2018-08-28T08:43:40.733Z,60.75
2018-08-28T08:46:08.883Z,62.53
2018-08-28T08:48:36.980Z,61.78
2018-08-28T08:51:05.221Z,60.38
2018-08-28T08:53:33.312Z,60.29
2018-08-28T08:56:01.429Z,60.34
2018-08-28T08:58:29.535Z,59.34
2018-08-28T09:00:57.680Z,59.15
2018-08-28T09:03:25.762Z,58.38
2018-08-28T09:05:53.967Z,58.04
2018-08-28T09:08:22.049Z,57.74
2018-08-28T09:10:50.240Z,58.15
2018-08-28T09:13:18.425Z,56.79
2018-08-28T09:15:46.540Z,58.02
2018-08-28T09:18:14.632Z,59.39
2018-08-28T09:20:42.763Z,59.00
2018-08-28T09:23:10.903Z,57.73
2018-08-28T09:25:38.999Z,57.00
2018-08-28T09:28:07.234Z,57.15
2018-08-28T09:30:35.307Z,54.54
2018-08-28T09:33:03.410Z,54.93
2018-08-28T09:35:31.519Z,54.89
2018-08-28T09:37:59.672Z,54.24
2018-08-28T09:40:27.742Z,54.80
2018-08-28T09:42:55.832Z,53.44
2018-08-28T09:45:23.943Z,52.38
2018-08-28T09:47:52.069Z,52.89
2018-08-28T09:50:20.144Z,51.99
2018-08-28T09:52:48.252Z,51.26
2018-08-28T09:55:16.354Z,51.41
2018-08-28T09:57:44.522Z,50.61
2018-08-28T10:00:21.182Z,50.99
2018-08-28T10:02:51.121Z,50.88
2018-08-28T10:05:19.219Z,49.55
2018-08-28T10:07:47.559Z,49.06
2018-08-28T10:10:15.660Z,48.52
2018-08-28T10:12:43.777Z,50.07
2018-08-28T10:15:12.282Z,48.40
2018-08-28T10:17:40.680Z,50.43
2018-08-28T10:20:08.765Z,50.57
2018-08-28T10:22:36.863Z,50.46
2018-08-28T10:25:05.068Z,49.85
2018-08-28T10:27:33.299Z,48.81
2018-08-28T10:30:01.515Z,49.94
2018-08-28T10:32:29.497Z,49.10
2018-08-28T10:34:57.707Z,48.66
2018-08-28T10:37:25.899Z,48.55
2018-08-28T10:39:54.053Z,49.09
2018-08-28T10:42:22.148Z,49.11
2018-08-28T10:44:50.219Z,49.36
2018-08-28T10:47:18.288Z,49.36
2018-08-28T10:49:46.380Z,49.39
2018-08-28T10:52:14.460Z,49.87
2018-08-28T10:54:42.549Z,49.77
2018-08-28T10:57:10.623Z,49.34
2018-08-28T10:59:38.683Z,49.80
2018-08-28T11:02:06.772Z,49.42
2018-08-28T11:04:35.087Z,48.84
2018-08-28T11:07:03.196Z,48.96
2018-08-28T11:09:31.297Z,48.68
2018-08-28T11:11:59.554Z,49.08
2018-08-28T11:14:27.684Z,48.75
2018-08-28T11:16:55.898Z,48.26
2018-08-28T11:19:23.988Z,48.91
2018-08-28T11:21:52.092Z,47.80
2018-08-28T11:24:20.244Z,48.39
2018-08-28T11:26:48.334Z,48.77
2018-08-28T11:29:16.449Z,48.28
2018-08-28T11:31:44.511Z,48.84
2018-08-28T11:34:12.615Z,48.73
2018-08-28T11:36:40.694Z,47.63
2018-08-28T11:39:09.124Z,47.50
2018-08-28T11:41:37.212Z,47.93
2018-08-28T11:44:05.305Z,47.61
2018-08-28T11:46:33.536Z,46.91
2018-08-28T11:49:01.771Z,47.67
2018-08-28T11:51:29.983Z,47.44
2018-08-28T11:53:58.172Z,47.48
2018-08-28T11:56:26.382Z,47.41
2018-08-28T11:58:54.550Z,47.27
2018-08-28T12:01:22.630Z,47.57
2018-08-28T12:03:50.708Z,46.73
2018-08-28T12:06:18.845Z,46.71
2018-08-28T12:08:46.972Z,46.48
2018-08-28T12:11:15.039Z,47.54
2018-08-28T12:13:43.179Z,46.78
2018-08-28T12:16:11.269Z,46.41
2018-08-28T12:18:39.343Z,45.65
2018-08-28T12:21:07.473Z,45.88
2018-08-28T12:23:35.495Z,46.59
2018-08-28T12:26:03.554Z,47.28
2018-08-28T12:28:31.635Z,45.91
2018-08-28T12:30:59.698Z,45.63
2018-08-28T12:33:27.797Z,45.48
2018-08-28T12:35:55.893Z,45.59
2018-08-28T12:38:24.007Z,45.04
2018-08-28T12:40:52.084Z,45.62
2018-08-28T12:43:20.178Z,44.99
2018-08-28T12:45:48.252Z,44.98
2018-08-28T12:48:16.413Z,44.91
2018-08-28T12:50:44.555Z,44.76
2018-08-28T12:53:12.663Z,44.67
2018-08-28T12:55:40.815Z,44.89
2018-08-28T12:58:08.889Z,44.62
2018-08-28T13:00:36.981Z,44.29
2018-08-28T13:03:05.095Z,44.13
2018-08-28T13:05:33.183Z,44.38
2018-08-28T13:08:01.411Z,44.34
2018-08-28T13:10:29.599Z,43.65
2018-08-28T13:12:57.702Z,44.57
2018-08-28T13:15:25.969Z,44.83
2018-08-28T13:17:54.248Z,44.29
2018-08-28T13:20:29.019Z,44.05
2018-08-28T13:22:57.120Z,43.29
2018-08-28T13:25:25.302Z,43.30
2018-08-28T13:27:53.425Z,43.34
2018-08-28T13:30:21.528Z,43.65
2018-08-28T13:32:49.692Z,42.85
2018-08-28T13:35:17.796Z,42.74
2018-08-28T13:37:46.024Z,42.88
2018-08-28T13:40:14.182Z,42.49
2018-08-28T13:42:42.345Z,42.64
2018-08-28T13:45:10.549Z,41.93
2018-08-28T13:47:38.720Z,41.81
2018-08-28T13:50:06.829Z,41.87
2018-08-28T13:52:35.052Z,42.31
2018-08-28T13:55:03.196Z,41.90
2018-08-28T13:57:31.478Z,41.58
2018-08-28T13:59:59.734Z,41.40
2018-08-28T14:02:27.747Z,41.41
2018-08-28T14:04:55.852Z,41.84
2018-08-28T14:07:23.917Z,41.16
2018-08-28T14:09:52.038Z,41.09
2018-08-28T14:12:20.219Z,42.01
2018-08-28T14:14:48.422Z,41.33
2018-08-28T14:17:16.499Z,41.53
2018-08-28T14:19:44.691Z,41.11
2018-08-28T14:22:12.910Z,41.56
2018-08-28T14:24:41.143Z,41.02
2018-08-28T14:27:09.265Z,41.48
2018-08-28T14:29:37.405Z,41.35
2018-08-28T14:32:05.723Z,42.19
2018-08-28T14:34:33.945Z,41.23
2018-08-28T14:37:02.024Z,40.64
2018-08-28T14:39:30.130Z,40.70
2018-08-28T14:41:58.252Z,40.47
2018-08-28T14:44:26.480Z,40.82
2018-08-28T14:46:54.665Z,40.39
2018-08-28T14:49:22.779Z,40.40
2018-08-28T14:51:50.916Z,40.05
2018-08-28T14:54:19.021Z,40.14
2018-08-28T14:56:47.172Z,40.50
2018-08-28T14:59:15.226Z,40.29
2018-08-28T15:01:43.326Z,40.58
2018-08-28T15:04:11.420Z,39.94
2018-08-28T15:06:39.531Z,39.74
2018-08-28T15:09:08.585Z,39.31
2018-08-28T15:11:36.699Z,38.97
2018-08-28T15:14:04.915Z,39.48
2018-08-28T15:16:33.194Z,38.93
2018-08-28T15:19:01.277Z,38.79
2018-08-28T15:21:29.363Z,39.05
2018-08-28T15:23:57.488Z,38.57
2018-08-28T15:26:25.590Z,38.46
2018-08-28T15:28:53.736Z,39.14
2018-08-28T15:31:21.939Z,38.73
2018-08-28T15:33:50.032Z,38.62
2018-08-28T15:36:18.123Z,38.60
2018-08-28T15:38:46.314Z,38.95
2018-08-28T15:41:14.412Z,38.77
2018-08-28T15:43:42.549Z,39.34
2018-08-28T15:46:10.765Z,38.48
2018-08-28T15:48:38.938Z,38.75
2018-08-28T15:51:07.068Z,38.62
2018-08-28T15:53:35.121Z,38.56
2018-08-28T15:56:03.272Z,38.57
2018-08-28T15:58:31.369Z,38.98
2018-08-28T16:01:06.991Z,38.78
2018-08-28T16:03:40.676Z,39.30
2018-08-28T16:06:33.999Z,39.32
2018-08-28T16:19:02.344Z,40.92
2018-08-28T16:46:09.744Z,39.88
2018-08-28T16:48:37.992Z,39.47
2018-08-28T16:51:09.589Z,38.86
2018-08-28T16:53:44.587Z,39.42
2018-08-28T16:56:16.347Z,39.23
2018-08-28T16:58:44.615Z,39.37
2018-08-28T17:01:19.323Z,39.40
2018-08-28T17:04:07.446Z,39.57
2018-08-28T17:06:35.551Z,39.75
2018-08-28T17:09:05.055Z,39.79
2018-08-28T17:11:33.126Z,39.69
2018-08-28T17:14:01.209Z,40.23
2018-08-28T17:16:29.302Z,40.35
2018-08-28T17:18:57.379Z,40.15
2018-08-28T17:21:25.485Z,40.03
2018-08-28T17:23:53.595Z,40.11
2018-08-28T17:26:21.721Z,40.23
2018-08-28T17:28:49.794Z,40.32
2018-08-28T17:31:17.883Z,40.64
2018-08-28T17:33:45.947Z,40.63
2018-08-28T17:36:14.048Z,40.45
2018-08-28T17:38:42.115Z,40.35
2018-08-28T17:41:10.178Z,40.75
2018-08-28T17:43:38.278Z,41.05
2018-08-28T17:46:06.354Z,41.39
2018-08-28T17:48:34.465Z,41.54
2018-08-28T17:51:02.551Z,41.56
2018-08-28T17:53:30.645Z,41.83
2018-08-28T17:55:58.715Z,41.76
2018-08-28T17:58:26.776Z,42.49
2018-08-28T18:00:54.940Z,42.17
2018-08-28T18:03:23.111Z,42.17
2018-08-28T18:05:51.188Z,42.65
2018-08-28T18:08:19.313Z,42.63
2018-08-28T18:10:47.443Z,42.73
2018-08-28T18:13:15.542Z,43.28
2018-08-28T18:15:43.615Z,43.80
2018-08-28T18:18:11.725Z,43.72
2018-08-28T18:20:40.074Z,43.76
2018-08-28T18:23:08.307Z,44.20
2018-08-28T18:25:36.552Z,44.90
2018-08-28T18:28:04.753Z,47.16
2018-08-28T18:30:32.962Z,49.46
2018-08-28T18:33:01.180Z,51.18
2018-08-28T18:35:29.527Z,51.72
2018-08-28T18:37:58.444Z,51.87
2018-08-28T18:40:26.871Z,52.79
2018-08-28T18:42:55.628Z,52.78
2018-08-28T18:45:23.809Z,53.18
2018-08-28T18:47:52.304Z,53.56
2018-08-28T18:50:20.520Z,53.31
2018-08-28T18:52:48.793Z,53.61
2018-08-28T18:55:17.998Z,54.32
2018-08-28T18:57:46.220Z,55.36
2018-08-28T19:00:14.545Z,55.05
2018-08-28T19:02:43.374Z,55.17
2018-08-28T19:05:11.491Z,55.63
2018-08-28T19:07:40.376Z,56.68
2018-08-28T19:10:08.586Z,57.30
2018-08-28T19:12:37.353Z,56.94
2018-08-28T19:17:41.906Z,57.81
2018-08-28T19:20:10.127Z,57.91
2018-08-28T19:22:38.333Z,57.65
2018-08-28T19:25:06.614Z,58.36
2018-08-28T19:27:35.224Z,58.78
2018-08-28T19:30:04.165Z,58.89
2018-08-28T19:32:32.523Z,59.38
2018-08-28T19:35:00.847Z,59.87
2018-08-28T19:37:30.018Z,59.75
2018-08-28T19:39:59.162Z,60.61
2018-08-28T19:42:27.385Z,60.62
2018-08-28T19:44:55.734Z,60.52
2018-08-28T19:47:24.977Z,60.81
2018-08-28T19:49:53.299Z,61.11
2018-08-28T19:52:21.517Z,61.41
2018-08-28T19:54:50.517Z,61.62
2018-08-28T19:57:19.186Z,62.56
2018-08-28T19:59:47.367Z,62.22
2018-08-28T20:02:16.404Z,62.28
2018-08-28T20:04:53.872Z,62.41
2018-08-28T20:07:22.224Z,63.17
2018-08-28T20:09:51.059Z,62.71
2018-08-28T20:12:19.311Z,64.07
2018-08-28T20:14:47.561Z,63.93
2018-08-28T20:17:15.896Z,63.81
2018-08-28T20:19:44.080Z,64.65
2018-08-28T20:22:12.950Z,64.69
2018-08-28T20:24:42.203Z,65.13
2018-08-28T20:27:10.534Z,64.51
2018-08-28T20:29:39.042Z,64.64
2018-08-28T20:32:07.395Z,65.24
2018-08-28T20:34:35.568Z,65.00
2018-08-28T20:37:04.612Z,66.11
2018-08-28T20:39:45.213Z,65.50
2018-08-28T20:42:13.578Z,66.45
2018-08-28T20:44:41.988Z,67.03
2018-08-28T20:47:10.610Z,68.25
2018-08-28T20:49:38.833Z,67.46
2018-08-28T20:52:07.293Z,67.60
2018-08-28T20:54:36.267Z,69.19
2018-08-28T20:57:06.626Z,68.71
2018-08-28T20:59:34.805Z,68.15
2018-08-28T21:02:03.813Z,69.45
2018-08-28T21:04:31.986Z,68.21
2018-08-28T21:07:01.134Z,68.31
2018-08-28T21:09:29.421Z,69.46
2018-08-28T21:11:57.677Z,68.76
2018-08-28T21:14:25.909Z,69.67
2018-08-28T21:16:54.083Z,70.41
2018-08-28T21:19:22.256Z,70.10
2018-08-28T21:21:50.473Z,70.24
2018-08-28T21:24:18.975Z,70.21
2018-08-28T21:26:47.155Z,70.02
2018-08-28T21:29:15.391Z,71.17
2018-08-28T21:31:43.557Z,71.64
2018-08-28T21:34:12.554Z,72.01
2018-08-28T21:36:41.013Z,71.59
2018-08-28T21:39:09.191Z,72.50
2018-08-28T21:41:37.515Z,71.27
2018-08-28T21:44:06.595Z,71.98
2018-08-28T21:46:34.839Z,72.99
2018-08-28T21:49:03.131Z,72.44
2018-08-28T21:51:31.324Z,72.42
2018-08-28T21:53:59.517Z,71.76
2018-08-28T21:56:27.783Z,72.01
2018-08-28T21:58:56.030Z,72.72
2018-08-28T22:01:24.738Z,72.66
2018-08-28T22:03:52.946Z,71.89
2018-08-28T22:06:26.731Z,72.23
2018-08-28T22:08:55.374Z,72.31
2018-08-28T22:11:23.952Z,71.91
2018-08-28T22:13:52.468Z,71.95
2018-08-28T22:16:21.417Z,72.55
2018-08-28T22:18:50.095Z,72.72
2018-08-28T22:21:18.488Z,72.46
2018-08-28T22:23:47.674Z,72.04
2018-08-28T22:26:16.244Z,71.93
2018-08-28T22:28:44.480Z,71.56
2018-08-28T22:31:12.667Z,71.71
2018-08-28T22:33:40.716Z,72.02
2018-08-28T22:36:08.752Z,72.60
2018-08-28T22:38:36.812Z,72.54
2018-08-28T22:41:04.895Z,73.03
2018-08-28T22:43:32.958Z,73.13
2018-08-28T22:46:01.035Z,70.79
2018-08-28T22:48:29.083Z,70.22
2018-08-28T22:50:57.132Z,69.70
2018-08-28T22:53:25.205Z,67.34
2018-08-28T22:55:53.257Z,67.55
2018-08-28T22:58:21.320Z,67.60
2018-08-28T23:00:49.399Z,66.14
2018-08-28T23:03:17.459Z,66.21
2018-08-28T23:05:45.504Z,65.27
2018-08-28T23:08:13.550Z,65.71
2018-08-28T23:10:41.603Z,65.15
2018-08-28T23:13:09.671Z,65.49
2018-08-28T23:15:37.719Z,65.40
2018-08-28T23:18:05.810Z,65.45
2018-08-28T23:20:33.879Z,64.73
2018-08-28T23:23:01.932Z,64.23
2018-08-28T23:25:30.033Z,64.58
2018-08-28T23:27:58.076Z,64.60
2018-08-28T23:30:26.141Z,64.40
2018-08-28T23:32:54.213Z,64.17
2018-08-28T23:35:22.262Z,65.61
2018-08-28T23:37:50.335Z,65.28
2018-08-28T23:40:18.411Z,66.25
2018-08-28T23:42:46.478Z,67.08
2018-08-28T23:45:14.531Z,68.62
2018-08-28T23:47:42.614Z,68.34
2018-08-28T23:50:10.743Z,66.43
2018-08-28T23:52:38.798Z,68.16
2018-08-28T23:55:06.860Z,68.88
2018-08-28T23:57:34.938Z,69.15
